createdAt,value
2018-12-31T00:01:17.630Z,2.40
2018-12-31T00:07:12.541Z,2.40
2018-12-31T00:10:00.345Z,2.40
2018-12-31T00:12:48.167Z,2.40
2018-12-31T00:15:35.956Z,2.40
2018-12-31T00:18:23.791Z,2.30
2018-12-31T00:21:11.580Z,2.30
2018-12-31T00:23:59.413Z,2.30
2018-12-31T00:26:47.211Z,2.30
2018-12-31T00:29:35.034Z,2.30
2018-12-31T00:32:22.839Z,2.30
2018-12-31T00:38:04.294Z,2.30
2018-12-31T00:40:52.124Z,2.30
2018-12-31T00:46:33.095Z,2.30
2018-12-31T00:49:13.996Z,2.30
2018-12-31T00:51:52.837Z,2.30
2018-12-31T00:54:40.699Z,2.30
2018-12-31T00:57:28.528Z,2.30
2018-12-31T01:03:10.187Z,2.30
2018-12-31T01:05:57.986Z,2.30
2018-12-31T01:08:45.814Z,2.30
2018-12-31T01:11:33.623Z,2.20
2018-12-31T01:17:14.847Z,2.20
2018-12-31T01:19:56.007Z,2.20
2018-12-31T01:22:36.879Z,2.20
2018-12-31T01:25:17.111Z,2.20
2018-12-31T01:27:58.199Z,2.20
2018-12-31T01:30:39.157Z,2.20
2018-12-31T01:33:20.527Z,2.20
2018-12-31T01:36:01.255Z,2.20
2018-12-31T01:38:41.803Z,2.20
2018-12-31T01:41:22.497Z,2.20
2018-12-31T01:44:03.318Z,2.20
2018-12-31T01:46:43.551Z,2.20
2018-12-31T01:49:24.488Z,2.20
2018-12-31T01:52:05.672Z,2.20
2018-12-31T01:54:46.202Z,2.20
2018-12-31T01:57:27.016Z,2.20
2018-12-31T02:00:07.762Z,2.20
2018-12-31T02:02:49.114Z,2.20
2018-12-31T02:05:29.788Z,2.30
2018-12-31T02:08:10.931Z,2.30
2018-12-31T02:10:39.427Z,2.30
2018-12-31T02:13:27.262Z,2.30
2018-12-31T02:15:55.727Z,2.30
2018-12-31T02:18:43.581Z,2.30
2018-12-31T02:21:31.377Z,2.30
2018-12-31T02:27:12.635Z,2.30
2018-12-31T02:32:54.187Z,2.40
2018-12-31T02:35:22.741Z,2.40
2018-12-31T02:38:10.570Z,2.40
2018-12-31T02:46:44.588Z,2.40
2018-12-31T02:49:32.386Z,2.40
2018-12-31T02:52:20.226Z,2.40
2018-12-31T02:55:08.101Z,2.40
2018-12-31T02:57:36.594Z,2.40
2018-12-31T03:03:22.842Z,2.40
2018-12-31T03:06:10.669Z,2.40
2018-12-31T03:08:58.491Z,2.40
2018-12-31T03:11:46.300Z,2.40
2018-12-31T03:14:27.014Z,2.40
2018-12-31T03:17:07.417Z,2.40
2018-12-31T03:19:35.907Z,2.40
2018-12-31T03:22:23.717Z,2.40
2018-12-31T03:28:05.162Z,2.40
2018-12-31T03:30:53.054Z,2.40
2018-12-31T03:33:40.947Z,2.40
2018-12-31T03:36:28.785Z,2.40
2018-12-31T03:39:16.584Z,2.40
2018-12-31T03:44:57.614Z,2.50
2018-12-31T03:47:45.503Z,2.50
2018-12-31T03:50:33.344Z,2.50
2018-12-31T03:53:21.206Z,2.50
2018-12-31T03:58:55.075Z,2.50
2018-12-31T04:01:35.857Z,2.50
2018-12-31T04:04:14.585Z,2.50
2018-12-31T04:06:43.278Z,2.50
2018-12-31T04:09:11.728Z,2.50
2018-12-31T04:11:59.555Z,2.50
2018-12-31T04:14:47.412Z,2.50
2018-12-31T04:17:35.216Z,2.50
2018-12-31T04:20:23.062Z,2.50
2018-12-31T04:26:17.818Z,2.50
2018-12-31T04:29:05.679Z,2.50
2018-12-31T04:34:46.726Z,2.50
2018-12-31T04:40:29.098Z,2.50
2018-12-31T04:43:16.895Z,2.50
2018-12-31T04:46:04.727Z,2.50
2018-12-31T04:48:52.613Z,2.50
2018-12-31T04:51:40.409Z,2.60
2018-12-31T04:54:28.240Z,2.50
2018-12-31T04:57:16.052Z,2.60
2018-12-31T04:59:56.600Z,2.60
2018-12-31T05:02:37.074Z,2.60
2018-12-31T05:05:18.373Z,2.60
2018-12-31T05:07:59.501Z,2.60
2018-12-31T05:10:38.250Z,2.60
2018-12-31T05:19:12.918Z,2.60
2018-12-31T05:22:00.770Z,2.60
2018-12-31T05:24:48.592Z,2.60
2018-12-31T05:27:36.446Z,2.50
2018-12-31T05:30:24.351Z,2.50
2018-12-31T05:33:12.142Z,2.60
2018-12-31T05:36:00.029Z,2.50
2018-12-31T05:41:41.696Z,2.50
2018-12-31T05:47:23.398Z,2.50
2018-12-31T05:50:11.268Z,2.50
2018-12-31T05:52:59.171Z,2.40
2018-12-31T05:55:46.988Z,2.40
2018-12-31T05:58:34.889Z,2.30
2018-12-31T06:04:09.239Z,2.30
2018-12-31T06:06:49.631Z,2.30
2018-12-31T06:09:30.852Z,2.30
2018-12-31T06:12:11.833Z,2.20
2018-12-31T06:14:52.776Z,2.20
2018-12-31T06:17:34.082Z,2.20
2018-12-31T06:20:15.059Z,2.20
2018-12-31T06:22:56.253Z,2.20
2018-12-31T06:25:37.201Z,2.20
2018-12-31T06:28:17.528Z,2.20
2018-12-31T06:30:56.262Z,2.20
2018-12-31T06:33:44.090Z,2.10
2018-12-31T06:36:31.933Z,2.20
2018-12-31T06:39:19.792Z,2.20
2018-12-31T06:45:00.563Z,2.20
2018-12-31T06:47:48.381Z,2.20
2018-12-31T06:50:36.194Z,2.20
2018-12-31T06:53:15.073Z,2.20
2018-12-31T06:56:02.877Z,2.20
2018-12-31T07:01:44.162Z,2.20
2018-12-31T07:04:32.021Z,2.20
2018-12-31T07:10:13.635Z,2.20
2018-12-31T07:13:01.426Z,2.10
2018-12-31T07:15:49.260Z,2.10
2018-12-31T07:18:37.125Z,2.10
2018-12-31T07:24:31.905Z,2.10
2018-12-31T07:27:19.698Z,2.10
2018-12-31T07:30:07.597Z,2.10
2018-12-31T07:32:55.402Z,2.10
2018-12-31T07:35:43.237Z,2.10
2018-12-31T07:38:11.684Z,2.10
2018-12-31T07:40:59.542Z,2.10
2018-12-31T07:43:47.390Z,2.10
2018-12-31T07:46:28.302Z,2.10
2018-12-31T07:49:08.592Z,2.10
2018-12-31T07:51:49.363Z,2.10
2018-12-31T07:54:29.823Z,2.10
2018-12-31T07:57:10.695Z,2.10
2018-12-31T07:59:50.952Z,2.10
2018-12-31T08:02:31.701Z,2.10
2018-12-31T08:05:12.170Z,2.10
2018-12-31T08:07:53.415Z,2.10
2018-12-31T08:10:32.120Z,2.10
2018-12-31T08:13:19.945Z,2.10
2018-12-31T08:16:07.738Z,2.10
2018-12-31T08:18:55.613Z,2.10
2018-12-31T08:21:43.488Z,2.10
2018-12-31T08:24:31.343Z,2.10
2018-12-31T08:27:19.143Z,2.10
2018-12-31T08:29:47.649Z,2.10
2018-12-31T08:32:35.438Z,2.10
2018-12-31T08:35:23.261Z,2.10
2018-12-31T08:40:59.872Z,2.00
2018-12-31T08:43:47.666Z,2.00
2018-12-31T08:46:35.505Z,2.00
2018-12-31T08:49:23.294Z,2.00
2018-12-31T08:55:04.519Z,2.00
2018-12-31T08:57:52.614Z,1.90
2018-12-31T09:04:10.505Z,1.90
2018-12-31T09:09:52.038Z,1.90
2018-12-31T09:12:32.718Z,1.90
2018-12-31T09:15:14.726Z,1.90
2018-12-31T09:17:55.935Z,1.90
2018-12-31T09:20:36.412Z,2.20
2018-12-31T09:23:16.815Z,2.30
2018-12-31T09:25:57.582Z,2.20
2018-12-31T09:28:38.302Z,2.20
2018-12-31T09:31:19.152Z,2.20
2018-12-31T09:33:59.564Z,2.10
2018-12-31T09:36:40.423Z,2.10
2018-12-31T09:39:20.911Z,2.10
2018-12-31T09:41:59.795Z,2.00
2018-12-31T09:44:47.644Z,2.00
2018-12-31T09:47:35.479Z,2.00
2018-12-31T09:50:23.310Z,1.90
2018-12-31T09:53:12.594Z,1.90
2018-12-31T09:56:00.690Z,1.90
2018-12-31T09:58:48.774Z,1.90
2018-12-31T10:01:17.532Z,1.80
2018-12-31T10:04:05.386Z,1.80
2018-12-31T10:06:53.214Z,1.80
2018-12-31T10:09:41.031Z,1.80
2018-12-31T10:15:15.149Z,1.80
2018-12-31T10:17:56.177Z,1.90
2018-12-31T10:20:34.996Z,1.90
2018-12-31T10:23:22.804Z,1.90
2018-12-31T10:26:10.641Z,1.90
2018-12-31T10:28:58.446Z,1.90
2018-12-31T10:31:46.360Z,1.90
2018-12-31T10:34:34.157Z,2.00
2018-12-31T10:40:15.521Z,1.90
2018-12-31T10:43:03.404Z,1.90
2018-12-31T10:45:51.230Z,1.90
2018-12-31T10:48:39.023Z,1.90
2018-12-31T10:51:26.878Z,1.90
2018-12-31T10:54:14.748Z,1.90
2018-12-31T10:56:55.881Z,1.90
2018-12-31T10:59:36.956Z,1.90
2018-12-31T11:02:17.779Z,1.90
2018-12-31T11:04:58.187Z,1.90
2018-12-31T11:07:39.090Z,1.90
2018-12-31T11:10:20.484Z,1.90
2018-12-31T11:13:01.188Z,1.90
2018-12-31T11:15:42.149Z,1.90
2018-12-31T11:18:21.041Z,1.90
2018-12-31T11:21:08.962Z,1.90
2018-12-31T11:23:49.785Z,1.90
2018-12-31T11:26:30.859Z,1.90
2018-12-31T11:29:11.684Z,1.90
2018-12-31T11:31:52.802Z,1.80
2018-12-31T11:34:36.881Z,1.80
2018-12-31T11:37:17.298Z,2.00
2018-12-31T11:39:58.285Z,1.90
2018-12-31T11:42:38.518Z,1.90
2018-12-31T11:45:19.422Z,1.90
2018-12-31T11:47:59.695Z,1.90
2018-12-31T11:50:40.797Z,1.90
2018-12-31T11:53:21.217Z,1.90
2018-12-31T11:56:02.373Z,1.90
2018-12-31T11:58:42.969Z,1.90
2018-12-31T12:01:23.794Z,1.90
2018-12-31T12:04:04.896Z,1.80
2018-12-31T12:06:45.410Z,1.80
2018-12-31T12:09:26.029Z,1.80
2018-12-31T12:12:13.843Z,1.80
2018-12-31T12:15:01.775Z,1.90
2018-12-31T12:17:49.641Z,1.90
2018-12-31T12:20:39.220Z,1.80
2018-12-31T12:23:27.092Z,1.80
2018-12-31T12:29:09.857Z,1.80
2018-12-31T12:31:57.729Z,1.80
2018-12-31T12:34:45.625Z,1.80
2018-12-31T12:37:35.180Z,1.80
2018-12-31T12:40:22.993Z,1.80
2018-12-31T12:43:12.563Z,1.80
2018-12-31T12:46:00.421Z,1.80
2018-12-31T12:48:49.920Z,1.90
2018-12-31T12:54:31.622Z,1.90
2018-12-31T12:57:19.450Z,1.90
2018-12-31T13:00:07.962Z,2.00
2018-12-31T13:02:55.846Z,1.90
2018-12-31T13:05:45.392Z,1.90
2018-12-31T13:08:33.300Z,2.00
2018-12-31T13:11:22.865Z,2.00
2018-12-31T13:14:12.228Z,2.00
2018-12-31T13:17:00.266Z,2.00
2018-12-31T13:22:34.909Z,2.00
2018-12-31T13:25:15.590Z,2.00
2018-12-31T13:27:56.021Z,2.10
2018-12-31T13:30:36.358Z,2.10
2018-12-31T13:33:17.477Z,2.10
2018-12-31T13:35:58.443Z,2.10
2018-12-31T13:38:39.473Z,2.10
2018-12-31T13:41:20.577Z,2.10
2018-12-31T13:44:01.736Z,2.10
2018-12-31T13:46:42.163Z,2.20
2018-12-31T13:49:23.376Z,2.20
2018-12-31T13:52:04.053Z,2.20
2018-12-31T13:54:42.860Z,2.20
2018-12-31T13:57:30.729Z,2.20
2018-12-31T14:00:18.749Z,2.20
2018-12-31T14:03:06.608Z,2.30
2018-12-31T14:05:54.449Z,2.30
2018-12-31T14:11:36.112Z,2.30
2018-12-31T14:14:24.003Z,2.30
2018-12-31T14:17:11.893Z,2.30
2018-12-31T14:19:59.701Z,2.30
2018-12-31T14:22:55.232Z,2.30
2018-12-31T14:25:37.661Z,2.30
2018-12-31T14:28:18.447Z,2.30
2018-12-31T14:30:59.618Z,2.30
2018-12-31T14:33:40.746Z,2.30
2018-12-31T14:36:21.441Z,2.40
2018-12-31T14:39:02.679Z,2.40
2018-12-31T14:41:31.238Z,2.40
2018-12-31T14:44:19.173Z,2.40
2018-12-31T14:47:07.039Z,2.40
2018-12-31T14:49:54.938Z,2.40
2018-12-31T14:52:42.856Z,2.40
2018-12-31T14:55:30.800Z,2.40
2018-12-31T14:58:18.661Z,2.40
2018-12-31T15:01:06.578Z,2.40
2018-12-31T15:03:54.434Z,2.40
2018-12-31T15:06:42.442Z,2.50
2018-12-31T15:09:30.345Z,2.50
2018-12-31T15:12:18.156Z,2.50
2018-12-31T15:15:06.663Z,2.50
2018-12-31T15:17:54.622Z,2.50
2018-12-31T15:20:42.534Z,2.60
2018-12-31T15:26:17.466Z,2.60
2018-12-31T15:28:58.853Z,2.60
2018-12-31T15:31:39.166Z,2.70
2018-12-31T15:34:20.563Z,2.70
2018-12-31T15:37:00.841Z,2.70
2018-12-31T15:39:41.743Z,2.70
2018-12-31T15:42:22.961Z,2.70
2018-12-31T15:45:04.210Z,2.80
2018-12-31T15:47:44.856Z,2.80
2018-12-31T15:50:25.450Z,2.80
2018-12-31T15:53:06.520Z,2.80
2018-12-31T15:55:47.673Z,2.80
2018-12-31T15:58:27.981Z,2.90
2018-12-31T16:01:08.899Z,2.90
2018-12-31T16:03:49.165Z,2.90
2018-12-31T16:06:30.351Z,2.90
2018-12-31T16:09:11.459Z,3.00
2018-12-31T16:11:52.471Z,2.90
2018-12-31T16:14:33.185Z,3.00
2018-12-31T16:17:13.901Z,3.10
2018-12-31T16:19:54.204Z,3.20
2018-12-31T16:22:34.592Z,3.30
2018-12-31T16:25:15.270Z,3.30
2018-12-31T16:27:54.144Z,3.40
2018-12-31T16:30:42.021Z,3.40
2018-12-31T16:36:23.532Z,3.40
2018-12-31T16:39:11.433Z,3.40
2018-12-31T16:41:59.311Z,3.40
2018-12-31T16:44:47.245Z,3.40
2018-12-31T16:47:35.128Z,3.50
2018-12-31T16:50:06.531Z,3.50
2018-12-31T16:55:41.378Z,3.70
2018-12-31T16:58:22.165Z,3.70
2018-12-31T17:01:02.729Z,3.60
2018-12-31T17:03:43.749Z,3.60
2018-12-31T17:06:24.599Z,3.60
2018-12-31T17:09:04.957Z,3.50
2018-12-31T17:11:46.353Z,3.50
2018-12-31T17:14:27.142Z,3.50
2018-12-31T17:17:07.905Z,3.50
2018-12-31T17:19:48.633Z,3.50
2018-12-31T17:22:29.015Z,3.50
2018-12-31T17:25:10.413Z,3.50
2018-12-31T17:27:51.505Z,3.50
2018-12-31T17:30:20.095Z,3.50
2018-12-31T17:33:08.011Z,3.50
2018-12-31T17:42:20.586Z,3.40
2018-12-31T17:48:00.183Z,3.40
2018-12-31T17:50:40.806Z,3.40
2018-12-31T17:53:21.201Z,3.40
2018-12-31T17:56:02.365Z,3.50
2018-12-31T17:58:43.482Z,3.40
2018-12-31T18:01:24.612Z,3.40
2018-12-31T18:04:05.262Z,3.40
2018-12-31T18:06:45.710Z,3.50
2018-12-31T18:09:26.777Z,3.50
2018-12-31T18:12:07.056Z,3.50
2018-12-31T18:14:47.626Z,3.50
2018-12-31T18:17:28.499Z,3.50
2018-12-31T18:20:08.848Z,3.50
2018-12-31T18:22:49.585Z,3.50
2018-12-31T18:25:30.746Z,3.50
2018-12-31T18:28:11.279Z,3.60
2018-12-31T18:30:53.291Z,3.60
2018-12-31T18:33:33.960Z,3.60
2018-12-31T18:36:14.583Z,3.70
2018-12-31T18:38:55.808Z,3.60
2018-12-31T18:41:36.974Z,3.70
2018-12-31T18:44:17.511Z,3.70
2018-12-31T18:46:58.526Z,3.80
2018-12-31T18:49:39.634Z,3.80
2018-12-31T18:52:20.542Z,3.80
2018-12-31T18:55:01.143Z,3.80
2018-12-31T18:57:41.801Z,3.80
2018-12-31T19:00:22.950Z,3.80
2018-12-31T19:03:03.488Z,3.80
2018-12-31T19:05:44.774Z,3.80
2018-12-31T19:08:25.581Z,3.80
2018-12-31T19:11:06.561Z,3.80
2018-12-31T19:13:45.448Z,3.80
2018-12-31T19:16:33.317Z,3.80
2018-12-31T19:22:14.951Z,4.40
2018-12-31T19:25:02.818Z,4.70
2018-12-31T19:30:24.261Z,5.00
2018-12-31T19:32:53.104Z,4.90
2018-12-31T19:35:40.933Z,4.90
2018-12-31T19:38:28.868Z,4.70
2018-12-31T19:41:16.724Z,4.60
2018-12-31T19:44:04.540Z,4.50
2018-12-31T19:46:52.356Z,4.40
2018-12-31T19:49:40.194Z,4.30
2018-12-31T19:52:29.712Z,4.40
2018-12-31T19:55:17.611Z,4.40
2018-12-31T19:58:07.163Z,4.30
2018-12-31T20:00:55.050Z,4.30
2018-12-31T20:06:36.746Z,4.30
2018-12-31T20:09:26.353Z,4.30
2018-12-31T20:11:54.927Z,4.30
2018-12-31T20:14:42.764Z,4.20
2018-12-31T20:17:11.232Z,4.20
2018-12-31T20:19:59.120Z,4.20
2018-12-31T20:22:46.994Z,4.20
2018-12-31T20:28:28.911Z,4.10
2018-12-31T20:31:09.360Z,4.10
2018-12-31T20:33:50.165Z,4.10
2018-12-31T20:36:31.156Z,4.10
2018-12-31T20:39:11.917Z,4.10
2018-12-31T20:41:53.081Z,4.10
2018-12-31T20:44:34.544Z,4.10
2018-12-31T20:47:03.303Z,4.10
2018-12-31T20:49:51.182Z,4.10
2018-12-31T20:52:40.746Z,4.00
2018-12-31T20:55:09.284Z,4.10
2018-12-31T20:57:57.112Z,4.10
2018-12-31T21:00:44.929Z,4.10
2018-12-31T21:06:26.277Z,4.10
2018-12-31T21:09:14.184Z,4.10
2018-12-31T21:12:02.091Z,4.10
2018-12-31T21:14:49.877Z,4.10
2018-12-31T21:17:39.430Z,4.00
2018-12-31T21:20:27.313Z,4.00
2018-12-31T21:23:16.848Z,4.00
2018-12-31T21:26:04.747Z,4.10
2018-12-31T21:28:52.477Z,4.00
2018-12-31T21:31:32.985Z,4.10
2018-12-31T21:34:14.140Z,4.00
2018-12-31T21:36:54.696Z,4.00
2018-12-31T21:39:35.203Z,4.10
2018-12-31T21:42:16.341Z,4.10
2018-12-31T21:44:57.748Z,4.10
2018-12-31T21:47:38.316Z,4.10
2018-12-31T21:50:19.398Z,4.10
2018-12-31T21:52:47.936Z,4.10
2018-12-31T21:55:35.861Z,4.10
2018-12-31T21:58:25.396Z,4.10
2018-12-31T22:01:13.313Z,4.10
2018-12-31T22:04:01.219Z,4.10
2018-12-31T22:06:49.087Z,4.30
2018-12-31T22:09:36.992Z,4.40
2018-12-31T22:12:24.795Z,4.50
2018-12-31T22:15:12.623Z,4.60
2018-12-31T22:18:00.544Z,4.60
2018-12-31T22:20:48.421Z,4.70
2018-12-31T22:23:36.343Z,4.70
2018-12-31T22:26:24.261Z,4.70
2018-12-31T22:28:52.806Z,4.70
2018-12-31T22:31:33.062Z,4.60
2018-12-31T22:34:13.654Z,4.60
2018-12-31T22:36:54.813Z,4.50
2018-12-31T22:39:35.894Z,4.50
2018-12-31T22:42:16.511Z,4.50
2018-12-31T22:44:57.964Z,4.50
2018-12-31T22:47:39.182Z,4.40
2018-12-31T22:50:19.544Z,4.40
2018-12-31T22:53:00.622Z,4.40
2018-12-31T22:55:41.566Z,4.40
2018-12-31T22:58:21.967Z,4.50
2018-12-31T23:01:03.174Z,4.80
2018-12-31T23:03:44.040Z,5.00
2018-12-31T23:06:24.592Z,4.90
2018-12-31T23:09:05.040Z,4.80
2018-12-31T23:11:45.816Z,4.80
2018-12-31T23:14:26.401Z,4.70
2018-12-31T23:17:07.292Z,4.60
2018-12-31T23:19:48.464Z,4.60
2018-12-31T23:22:29.199Z,4.60
2018-12-31T23:25:10.526Z,4.60
2018-12-31T23:27:50.909Z,4.70
2018-12-31T23:30:32.053Z,4.70
2018-12-31T23:33:13.035Z,4.70
2018-12-31T23:35:54.212Z,4.70
2018-12-31T23:38:35.237Z,4.70
2018-12-31T23:41:16.435Z,4.70
2018-12-31T23:43:57.214Z,4.70
2018-12-31T23:46:38.014Z,4.60
2018-12-31T23:49:18.925Z,4.60
2018-12-31T23:51:59.521Z,4.60
2018-12-31T23:54:40.673Z,4.50
2018-12-31T23:57:21.110Z,4.50
2018-12-31T23:59:50.113Z,4.50
